METAR Data
IDs: Format: Raw Decoded Include TAF

Data at: 1206 UTC 16 Sep 2019

METAR for:EKRN (Ronne/Bornholm Arpt, --, DN)
Text:EKRN 161150Z AUTO 28021KT 9999 SCT056/// 15/08 Q1012
Temperature: 15.0°C ( 59°F)
Dewpoint: 8.0°C ( 46°F) [RH = 63%]
Pressure (altimeter):29.88 inches Hg (1012.0 mb)
Winds:from the W (280 degrees) at 24 MPH (21 knots; 10.8 m/s)
Visibility:6 or more sm (10+ km)
Ceiling:at least 12,000 feet AGL
Clouds: scattered clouds at 5600 feet AGL
Text:EKRN 161120Z AUTO 28020KT 9999 SCT058/// 15/08 Q1012
Temperature: 15.0°C ( 59°F)
Dewpoint: 8.0°C ( 46°F) [RH = 63%]
Pressure (altimeter):29.88 inches Hg (1012.0 mb)
Winds:from the W (280 degrees) at 23 MPH (20 knots; 10.3 m/s)
Visibility:6 or more sm (10+ km)
Ceiling:at least 12,000 feet AGL
Clouds: scattered clouds at 5800 feet AGL
Text:EKRN 161050Z AUTO 28019KT 9999 FEW029/// BKN056/// 15/08 Q1012
Temperature: 15.0°C ( 59°F)
Dewpoint: 8.0°C ( 46°F) [RH = 63%]
Pressure (altimeter):29.88 inches Hg (1012.0 mb)
Winds:from the W (280 degrees) at 22 MPH (19 knots; 9.8 m/s)
Visibility:6 or more sm (10+ km)
Ceiling:5600 feet AGL
Clouds: few clouds at 2900 feet AGL, broken clouds at 5600 feet AGL
Text:EKRN 161020Z AUTO 28020KT 9999 FEW027/// SCT056/// 15/09 Q1013
Temperature: 15.0°C ( 59°F)
Dewpoint: 9.0°C ( 48°F) [RH = 67%]
Pressure (altimeter):29.91 inches Hg (1013.0 mb)
Winds:from the W (280 degrees) at 23 MPH (20 knots; 10.3 m/s)
Visibility:6 or more sm (10+ km)
Ceiling:at least 12,000 feet AGL
Clouds: few clouds at 2700 feet AGL, scattered clouds at 5600 feet AGL
Text:EKRN 160950Z AUTO 28019G29KT 9999 FEW027/// 15/08 Q1012
Temperature: 15.0°C ( 59°F)
Dewpoint: 8.0°C ( 46°F) [RH = 63%]
Pressure (altimeter):29.88 inches Hg (1012.0 mb)
Winds:from the W (280 degrees) at 22 MPH (19 knots; 9.8 m/s) gusting to 33 MPH (29 knots; 14.9 m/s)
Visibility:6 or more sm (10+ km)
Ceiling:at least 12,000 feet AGL
Clouds: few clouds at 2700 feet AGL
Text:EKRN 160920Z AUTO 27020KT 9999 FEW029/// 14/08 Q1012
Temperature: 14.0°C ( 57°F)
Dewpoint: 8.0°C ( 46°F) [RH = 67%]
Pressure (altimeter):29.88 inches Hg (1012.0 mb)
Winds:from the W (270 degrees) at 23 MPH (20 knots; 10.3 m/s)
Visibility:6 or more sm (10+ km)
Ceiling:at least 12,000 feet AGL
Clouds: few clouds at 2900 feet AGL
Text:EKRN 160850Z AUTO 28021KT 9999 FEW028/// 14/08 Q1012
Temperature: 14.0°C ( 57°F)
Dewpoint: 8.0°C ( 46°F) [RH = 67%]
Pressure (altimeter):29.88 inches Hg (1012.0 mb)
Winds:from the W (280 degrees) at 24 MPH (21 knots; 10.8 m/s)
Visibility:6 or more sm (10+ km)
Ceiling:at least 12,000 feet AGL
Clouds: few clouds at 2800 feet AGL
Text:EKRN 160820Z AUTO 28021KT 9999 FEW029/// 14/08 Q1012
Temperature: 14.0°C ( 57°F)
Dewpoint: 8.0°C ( 46°F) [RH = 67%]
Pressure (altimeter):29.88 inches Hg (1012.0 mb)
Winds:from the W (280 degrees) at 24 MPH (21 knots; 10.8 m/s)
Visibility:6 or more sm (10+ km)
Ceiling:at least 12,000 feet AGL
Clouds: few clouds at 2900 feet AGL
Text:EKRN 160750Z AUTO 28024KT 9999 NCD 14/08 Q1012
Temperature: 14.0°C ( 57°F)
Dewpoint: 8.0°C ( 46°F) [RH = 67%]
Pressure (altimeter):29.88 inches Hg (1012.0 mb)
Winds:from the W (280 degrees) at 28 MPH (24 knots; 12.3 m/s)
Visibility:6 or more sm (10+ km)
Ceiling:at least 12,000 feet AGL
Clouds:sky clear below 12,000 feet AGL
Text:EKRN 160720Z AUTO 28024KT 9999 FEW027/// 14/08 Q1012
Temperature: 14.0°C ( 57°F)
Dewpoint: 8.0°C ( 46°F) [RH = 67%]
Pressure (altimeter):29.88 inches Hg (1012.0 mb)
Winds:from the W (280 degrees) at 28 MPH (24 knots; 12.3 m/s)
Visibility:6 or more sm (10+ km)
Ceiling:at least 12,000 feet AGL
Clouds: few clouds at 2700 feet AGL
Text:EKRN 160650Z AUTO 28024G35KT 9999 FEW027/// 14/08 Q1012
Temperature: 14.0°C ( 57°F)
Dewpoint: 8.0°C ( 46°F) [RH = 67%]
Pressure (altimeter):29.88 inches Hg (1012.0 mb)
Winds:from the W (280 degrees) at 28 MPH (24 knots; 12.3 m/s) gusting to 40 MPH (35 knots; 18.0 m/s)
Visibility:6 or more sm (10+ km)
Ceiling:at least 12,000 feet AGL
Clouds: few clouds at 2700 feet AGL
Text:EKRN 160620Z AUTO 28024KT 9999 SCT027/// 13/08 Q1012
Temperature: 13.0°C ( 55°F)
Dewpoint: 8.0°C ( 46°F) [RH = 72%]
Pressure (altimeter):29.88 inches Hg (1012.0 mb)
Winds:from the W (280 degrees) at 28 MPH (24 knots; 12.3 m/s)
Visibility:6 or more sm (10+ km)
Ceiling:at least 12,000 feet AGL
Clouds: scattered clouds at 2700 feet AGL
Text:EKRN 160550Z AUTO 28024G36KT 9999 SCT025/// 13/08 Q1012
Temperature: 13.0°C ( 55°F)
Dewpoint: 8.0°C ( 46°F) [RH = 72%]
Pressure (altimeter):29.88 inches Hg (1012.0 mb)
Winds:from the W (280 degrees) at 28 MPH (24 knots; 12.3 m/s) gusting to 41 MPH (36 knots; 18.5 m/s)
Visibility:6 or more sm (10+ km)
Ceiling:at least 12,000 feet AGL
Clouds: scattered clouds at 2500 feet AGL
Text:EKRN 160520Z AUTO 28023G33KT 9999 FEW024/// 13/09 Q1012
Temperature: 13.0°C ( 55°F)
Dewpoint: 9.0°C ( 48°F) [RH = 77%]
Pressure (altimeter):29.88 inches Hg (1012.0 mb)
Winds:from the W (280 degrees) at 26 MPH (23 knots; 11.8 m/s) gusting to 38 MPH (33 knots; 17.0 m/s)
Visibility:6 or more sm (10+ km)
Ceiling:at least 12,000 feet AGL
Clouds: few clouds at 2400 feet AGL
Text:EKRN 160450Z AUTO 28025KT 9999 FEW025/// 13/09 Q1012
Temperature: 13.0°C ( 55°F)
Dewpoint: 9.0°C ( 48°F) [RH = 77%]
Pressure (altimeter):29.88 inches Hg (1012.0 mb)
Winds:from the W (280 degrees) at 29 MPH (25 knots; 12.9 m/s)
Visibility:6 or more sm (10+ km)
Ceiling:at least 12,000 feet AGL
Clouds: few clouds at 2500 feet AGL
Text:EKRN 160420Z AUTO 28025KT 9999 FEW026/// 13/08 Q1012
Temperature: 13.0°C ( 55°F)
Dewpoint: 8.0°C ( 46°F) [RH = 72%]
Pressure (altimeter):29.88 inches Hg (1012.0 mb)
Winds:from the W (280 degrees) at 29 MPH (25 knots; 12.9 m/s)
Visibility:6 or more sm (10+ km)
Ceiling:at least 12,000 feet AGL
Clouds: few clouds at 2600 feet AGL
Text:EKRN 160350Z AUTO 28024KT 9999 FEW028/// BKN040/// 13/08 Q1012
Temperature: 13.0°C ( 55°F)
Dewpoint: 8.0°C ( 46°F) [RH = 72%]
Pressure (altimeter):29.88 inches Hg (1012.0 mb)
Winds:from the W (280 degrees) at 28 MPH (24 knots; 12.3 m/s)
Visibility:6 or more sm (10+ km)
Ceiling:4000 feet AGL
Clouds: few clouds at 2800 feet AGL, broken clouds at 4000 feet AGL
Text:EKRN 160320Z AUTO 28024KT 9999 BKN042/// 14/09 Q1012
Temperature: 14.0°C ( 57°F)
Dewpoint: 9.0°C ( 48°F) [RH = 72%]
Pressure (altimeter):29.88 inches Hg (1012.0 mb)
Winds:from the W (280 degrees) at 28 MPH (24 knots; 12.3 m/s)
Visibility:6 or more sm (10+ km)
Ceiling:4200 feet AGL
Clouds: broken clouds at 4200 feet AGL
Text:EKRN 160250Z AUTO 28025G35KT 9999 BKN032/// 14/09 Q1012
Temperature: 14.0°C ( 57°F)
Dewpoint: 9.0°C ( 48°F) [RH = 72%]
Pressure (altimeter):29.88 inches Hg (1012.0 mb)
Winds:from the W (280 degrees) at 29 MPH (25 knots; 12.9 m/s) gusting to 40 MPH (35 knots; 18.0 m/s)
Visibility:6 or more sm (10+ km)
Ceiling:3200 feet AGL
Clouds: broken clouds at 3200 feet AGL
Text:EKRN 160220Z AUTO 28024KT 9999 FEW028/// BKN040/// 14/09 Q1012
Temperature: 14.0°C ( 57°F)
Dewpoint: 9.0°C ( 48°F) [RH = 72%]
Pressure (altimeter):29.88 inches Hg (1012.0 mb)
Winds:from the W (280 degrees) at 28 MPH (24 knots; 12.3 m/s)
Visibility:6 or more sm (10+ km)
Ceiling:4000 feet AGL
Clouds: few clouds at 2800 feet AGL, broken clouds at 4000 feet AGL
Text:EKRN 160150Z AUTO 29027G38KT 9999 NCD 14/08 Q1012
Temperature: 14.0°C ( 57°F)
Dewpoint: 8.0°C ( 46°F) [RH = 67%]
Pressure (altimeter):29.88 inches Hg (1012.0 mb)
Winds:from the WNW (290 degrees) at 31 MPH (27 knots; 13.9 m/s) gusting to 44 MPH (38 knots; 19.5 m/s)
Visibility:6 or more sm (10+ km)
Ceiling:at least 12,000 feet AGL
Clouds:sky clear below 12,000 feet AGL
Text:EKRN 160120Z AUTO 28027G38KT 9999 NCD 14/09 Q1012
Temperature: 14.0°C ( 57°F)
Dewpoint: 9.0°C ( 48°F) [RH = 72%]
Pressure (altimeter):29.88 inches Hg (1012.0 mb)
Winds:from the W (280 degrees) at 31 MPH (27 knots; 13.9 m/s) gusting to 44 MPH (38 knots; 19.5 m/s)
Visibility:6 or more sm (10+ km)
Ceiling:at least 12,000 feet AGL
Clouds:sky clear below 12,000 feet AGL
Text:EKRN 160050Z AUTO 28026KT 9999 NCD 14/08 Q1012
Temperature: 14.0°C ( 57°F)
Dewpoint: 8.0°C ( 46°F) [RH = 67%]
Pressure (altimeter):29.88 inches Hg (1012.0 mb)
Winds:from the W (280 degrees) at 30 MPH (26 knots; 13.4 m/s)
Visibility:6 or more sm (10+ km)
Ceiling:at least 12,000 feet AGL
Clouds:sky clear below 12,000 feet AGL
Text:EKRN 160020Z AUTO 28026KT 9999 FEW043/// 14/08 Q1012
Temperature: 14.0°C ( 57°F)
Dewpoint: 8.0°C ( 46°F) [RH = 67%]
Pressure (altimeter):29.88 inches Hg (1012.0 mb)
Winds:from the W (280 degrees) at 30 MPH (26 knots; 13.4 m/s)
Visibility:6 or more sm (10+ km)
Ceiling:at least 12,000 feet AGL
Clouds: few clouds at 4300 feet AGL
Text:EKRN 152350Z AUTO 28026G37KT 9999 FEW044/// 14/08 Q1012
Temperature: 14.0°C ( 57°F)
Dewpoint: 8.0°C ( 46°F) [RH = 67%]
Pressure (altimeter):29.88 inches Hg (1012.0 mb)
Winds:from the W (280 degrees) at 30 MPH (26 knots; 13.4 m/s) gusting to 43 MPH (37 knots; 19.0 m/s)
Visibility:6 or more sm (10+ km)
Ceiling:at least 12,000 feet AGL
Clouds: few clouds at 4400 feet AGL
Text:EKRN 152320Z AUTO 29025G36KT 9999 SCT035/// 14/08 Q1012
Temperature: 14.0°C ( 57°F)
Dewpoint: 8.0°C ( 46°F) [RH = 67%]
Pressure (altimeter):29.88 inches Hg (1012.0 mb)
Winds:from the WNW (290 degrees) at 29 MPH (25 knots; 12.9 m/s) gusting to 41 MPH (36 knots; 18.5 m/s)
Visibility:6 or more sm (10+ km)
Ceiling:at least 12,000 feet AGL
Clouds: scattered clouds at 3500 feet AGL
Text:EKRN 152250Z AUTO 28025G35KT 9999 BKN036/// 14/07 Q1012
Temperature: 14.0°C ( 57°F)
Dewpoint: 7.0°C ( 45°F) [RH = 63%]
Pressure (altimeter):29.88 inches Hg (1012.0 mb)
Winds:from the W (280 degrees) at 29 MPH (25 knots; 12.9 m/s) gusting to 40 MPH (35 knots; 18.0 m/s)
Visibility:6 or more sm (10+ km)
Ceiling:3600 feet AGL
Clouds: broken clouds at 3600 feet AGL
Text:EKRN 152220Z AUTO 28026G36KT 9999 BKN036/// 14/08 Q1012
Temperature: 14.0°C ( 57°F)
Dewpoint: 8.0°C ( 46°F) [RH = 67%]
Pressure (altimeter):29.88 inches Hg (1012.0 mb)
Winds:from the W (280 degrees) at 30 MPH (26 knots; 13.4 m/s) gusting to 41 MPH (36 knots; 18.5 m/s)
Visibility:6 or more sm (10+ km)
Ceiling:3600 feet AGL
Clouds: broken clouds at 3600 feet AGL
Text:EKRN 152150Z AUTO 29027KT 9999 FEW038/// 14/08 Q1012
Temperature: 14.0°C ( 57°F)
Dewpoint: 8.0°C ( 46°F) [RH = 67%]
Pressure (altimeter):29.88 inches Hg (1012.0 mb)
Winds:from the WNW (290 degrees) at 31 MPH (27 knots; 13.9 m/s)
Visibility:6 or more sm (10+ km)
Ceiling:at least 12,000 feet AGL
Clouds: few clouds at 3800 feet AGL
Text:EKRN 152120Z AUTO 28025KT 9999 BKN038/// 14/08 Q1012
Temperature: 14.0°C ( 57°F)
Dewpoint: 8.0°C ( 46°F) [RH = 67%]
Pressure (altimeter):29.88 inches Hg (1012.0 mb)
Winds:from the W (280 degrees) at 29 MPH (25 knots; 12.9 m/s)
Visibility:6 or more sm (10+ km)
Ceiling:3800 feet AGL
Clouds: broken clouds at 3800 feet AGL
Text:EKRN 152050Z AUTO 28024G34KT 9999 BKN039/// 14/07 Q1012
Temperature: 14.0°C ( 57°F)
Dewpoint: 7.0°C ( 45°F) [RH = 63%]
Pressure (altimeter):29.88 inches Hg (1012.0 mb)
Winds:from the W (280 degrees) at 28 MPH (24 knots; 12.3 m/s) gusting to 39 MPH (34 knots; 17.5 m/s)
Visibility:6 or more sm (10+ km)
Ceiling:3900 feet AGL
Clouds: broken clouds at 3900 feet AGL
Text:EKRN 152020Z AUTO 28025G35KT 9999 BKN036/// 15/08 Q1012
Temperature: 15.0°C ( 59°F)
Dewpoint: 8.0°C ( 46°F) [RH = 63%]
Pressure (altimeter):29.88 inches Hg (1012.0 mb)
Winds:from the W (280 degrees) at 29 MPH (25 knots; 12.9 m/s) gusting to 40 MPH (35 knots; 18.0 m/s)
Visibility:6 or more sm (10+ km)
Ceiling:3600 feet AGL
Clouds: broken clouds at 3600 feet AGL
Text:EKRN 151950Z AUTO 28022KT 9999 BKN035/// 15/08 Q1012
Temperature: 15.0°C ( 59°F)
Dewpoint: 8.0°C ( 46°F) [RH = 63%]
Pressure (altimeter):29.88 inches Hg (1012.0 mb)
Winds:from the W (280 degrees) at 25 MPH (22 knots; 11.3 m/s)
Visibility:6 or more sm (10+ km)
Ceiling:3500 feet AGL
Clouds: broken clouds at 3500 feet AGL
Text:EKRN 151920Z AUTO 29024G35KT 9999 FEW035/// SCT045/// BKN170/// 15/08 Q1012
Temperature: 15.0°C ( 59°F)
Dewpoint: 8.0°C ( 46°F) [RH = 63%]
Pressure (altimeter):29.88 inches Hg (1012.0 mb)
Winds:from the WNW (290 degrees) at 28 MPH (24 knots; 12.3 m/s) gusting to 40 MPH (35 knots; 18.0 m/s)
Visibility:6 or more sm (10+ km)
Ceiling:17000 feet AGL
Clouds: few clouds at 3500 feet AGL, scattered clouds at 4500 feet AGL, broken clouds at 17000 feet AGL
Text:EKRN 151850Z AUTO 28025G35KT 9999 FEW040/// BKN046/// BKN190/// 15/08 Q1012
Temperature: 15.0°C ( 59°F)
Dewpoint: 8.0°C ( 46°F) [RH = 63%]
Pressure (altimeter):29.88 inches Hg (1012.0 mb)
Winds:from the W (280 degrees) at 29 MPH (25 knots; 12.9 m/s) gusting to 40 MPH (35 knots; 18.0 m/s)
Visibility:6 or more sm (10+ km)
Ceiling:4600 feet AGL
Clouds: few clouds at 4000 feet AGL, broken clouds at 4600 feet AGL, broken clouds at 19000 feet AGL
Text:EKRN 151820Z AUTO 28021KT 9999 FEW041/// SCT130/// BKN170/// 15/09 Q1012
Temperature: 15.0°C ( 59°F)
Dewpoint: 9.0°C ( 48°F) [RH = 67%]
Pressure (altimeter):29.88 inches Hg (1012.0 mb)
Winds:from the W (280 degrees) at 24 MPH (21 knots; 10.8 m/s)
Visibility:6 or more sm (10+ km)
Ceiling:17000 feet AGL
Clouds: few clouds at 4100 feet AGL, scattered clouds at 13000 feet AGL, broken clouds at 17000 feet AGL
Text:EKRN 151750Z AUTO 28021G31KT 9999 SCT100/// OVC130/// 15/08 Q1012
Temperature: 15.0°C ( 59°F)
Dewpoint: 8.0°C ( 46°F) [RH = 63%]
Pressure (altimeter):29.88 inches Hg (1012.0 mb)
Winds:from the W (280 degrees) at 24 MPH (21 knots; 10.8 m/s) gusting to 36 MPH (31 knots; 15.9 m/s)
Visibility:6 or more sm (10+ km)
Ceiling:13000 feet AGL
Clouds: scattered clouds at 10000 feet AGL, overcast cloud deck at 13000 feet AGL
Text:EKRN 151720Z AUTO 29024KT 9999 OVC100/// 16/09 Q1012
Temperature: 16.0°C ( 61°F)
Dewpoint: 9.0°C ( 48°F) [RH = 63%]
Pressure (altimeter):29.88 inches Hg (1012.0 mb)
Winds:from the WNW (290 degrees) at 28 MPH (24 knots; 12.3 m/s)
Visibility:6 or more sm (10+ km)
Ceiling:10000 feet AGL
Clouds: overcast cloud deck at 10000 feet AGL
Text:EKRN 151650Z AUTO 29020G30KT 9999 BKN038/// BKN130/// 16/11 Q1012
Temperature: 16.0°C ( 61°F)
Dewpoint: 11.0°C ( 52°F) [RH = 72%]
Pressure (altimeter):29.88 inches Hg (1012.0 mb)
Winds:from the WNW (290 degrees) at 23 MPH (20 knots; 10.3 m/s) gusting to 34 MPH (30 knots; 15.4 m/s)
Visibility:6 or more sm (10+ km)
Ceiling:3800 feet AGL
Clouds: broken clouds at 3800 feet AGL, broken clouds at 13000 feet AGL
Text:EKRN 151620Z AUTO 29016KT 9999 BKN038/// BKN130/// 16/11 Q1012
Temperature: 16.0°C ( 61°F)
Dewpoint: 11.0°C ( 52°F) [RH = 72%]
Pressure (altimeter):29.88 inches Hg (1012.0 mb)
Winds:from the WNW (290 degrees) at 18 MPH (16 knots; 8.2 m/s)
Visibility:6 or more sm (10+ km)
Ceiling:3800 feet AGL
Clouds: broken clouds at 3800 feet AGL, broken clouds at 13000 feet AGL
Text:EKRN 151550Z AUTO 29017KT 9999 BKN044/// BKN140/// 16/11 Q1012
Temperature: 16.0°C ( 61°F)
Dewpoint: 11.0°C ( 52°F) [RH = 72%]
Pressure (altimeter):29.88 inches Hg (1012.0 mb)
Winds:from the WNW (290 degrees) at 20 MPH (17 knots; 8.7 m/s)
Visibility:6 or more sm (10+ km)
Ceiling:4400 feet AGL
Clouds: broken clouds at 4400 feet AGL, broken clouds at 14000 feet AGL
Text:EKRN 151520Z AUTO 28017KT 9999 FEW050/// BKN140/// 16/12 Q1012
Temperature: 16.0°C ( 61°F)
Dewpoint: 12.0°C ( 54°F) [RH = 77%]
Pressure (altimeter):29.88 inches Hg (1012.0 mb)
Winds:from the W (280 degrees) at 20 MPH (17 knots; 8.7 m/s)
Visibility:6 or more sm (10+ km)
Ceiling:14000 feet AGL
Clouds: few clouds at 5000 feet AGL, broken clouds at 14000 feet AGL
Text:EKRN 151450Z AUTO 28018KT 9999 OVC042/// 16/12 Q1012
Temperature: 16.0°C ( 61°F)
Dewpoint: 12.0°C ( 54°F) [RH = 77%]
Pressure (altimeter):29.88 inches Hg (1012.0 mb)
Winds:from the W (280 degrees) at 21 MPH (18 knots; 9.3 m/s)
Visibility:6 or more sm (10+ km)
Ceiling:4200 feet AGL
Clouds: overcast cloud deck at 4200 feet AGL
Text:EKRN 151420Z AUTO 28018KT 9999 FEW036/// FEW041/// 16/12 Q1012
Temperature: 16.0°C ( 61°F)
Dewpoint: 12.0°C ( 54°F) [RH = 77%]
Pressure (altimeter):29.88 inches Hg (1012.0 mb)
Winds:from the W (280 degrees) at 21 MPH (18 knots; 9.3 m/s)
Visibility:6 or more sm (10+ km)
Ceiling:at least 12,000 feet AGL
Clouds: few clouds at 3600 feet AGL, few clouds at 4100 feet AGL
Text:EKRN 151350Z AUTO 28018KT 9999 BKN024/// 16/12 Q1012
Temperature: 16.0°C ( 61°F)
Dewpoint: 12.0°C ( 54°F) [RH = 77%]
Pressure (altimeter):29.88 inches Hg (1012.0 mb)
Winds:from the W (280 degrees) at 21 MPH (18 knots; 9.3 m/s)
Visibility:6 or more sm (10+ km)
Ceiling:2400 feet AGL
Clouds: broken clouds at 2400 feet AGL
Text:EKRN 151320Z AUTO 29018KT 9999 BKN012/// 16/12 Q1012
Temperature: 16.0°C ( 61°F)
Dewpoint: 12.0°C ( 54°F) [RH = 77%]
Pressure (altimeter):29.88 inches Hg (1012.0 mb)
Winds:from the WNW (290 degrees) at 21 MPH (18 knots; 9.3 m/s)
Visibility:6 or more sm (10+ km)
Ceiling:1200 feet AGL
Clouds: broken clouds at 1200 feet AGL
Text:EKRN 151250Z AUTO 26023KT 9999 BKN009/// BKN037/// BKN060/// 17/15 Q1011
Temperature: 17.0°C ( 63°F)
Dewpoint: 15.0°C ( 59°F) [RH = 88%]
Pressure (altimeter):29.85 inches Hg (1011.0 mb)
Winds:from the W (260 degrees) at 26 MPH (23 knots; 11.8 m/s)
Visibility:6 or more sm (10+ km)
Ceiling:900 feet AGL
Clouds: broken clouds at 900 feet AGL, broken clouds at 3700 feet AGL, broken clouds at 6000 feet AGL
Text:EKRN 151220Z AUTO 26023G33KT 9999 -SHRA OVC015/// 17/15 Q1011
Temperature: 17.0°C ( 63°F)
Dewpoint: 15.0°C ( 59°F) [RH = 88%]
Pressure (altimeter):29.85 inches Hg (1011.0 mb)
Winds:from the W (260 degrees) at 26 MPH (23 knots; 11.8 m/s) gusting to 38 MPH (33 knots; 17.0 m/s)
Visibility:6 or more sm (10+ km)
Ceiling:1500 feet AGL
Clouds: overcast cloud deck at 1500 feet AGL
Weather:-SHRA (light rain showers)
Text:EKRN 151150Z AUTO 26026KT 9999 OVC018/// 16/14 Q1012
Temperature: 16.0°C ( 61°F)
Dewpoint: 14.0°C ( 57°F) [RH = 88%]
Pressure (altimeter):29.88 inches Hg (1012.0 mb)
Winds:from the W (260 degrees) at 30 MPH (26 knots; 13.4 m/s)
Visibility:6 or more sm (10+ km)
Ceiling:1800 feet AGL
Clouds: overcast cloud deck at 1800 feet AGL
Text:EKRN 151120Z AUTO 26024KT 9999 OVC017/// 16/14 Q1012
Temperature: 16.0°C ( 61°F)
Dewpoint: 14.0°C ( 57°F) [RH = 88%]
Pressure (altimeter):29.88 inches Hg (1012.0 mb)
Winds:from the W (260 degrees) at 28 MPH (24 knots; 12.3 m/s)
Visibility:6 or more sm (10+ km)
Ceiling:1700 feet AGL
Clouds: overcast cloud deck at 1700 feet AGL
Text:EKRN 151050Z AUTO 26025KT 9999 OVC018/// 16/13 Q1012
Temperature: 16.0°C ( 61°F)
Dewpoint: 13.0°C ( 55°F) [RH = 82%]
Pressure (altimeter):29.88 inches Hg (1012.0 mb)
Winds:from the W (260 degrees) at 29 MPH (25 knots; 12.9 m/s)
Visibility:6 or more sm (10+ km)
Ceiling:1800 feet AGL
Clouds: overcast cloud deck at 1800 feet AGL
Text:EKRN 151020Z AUTO 25025KT 9999 BKN024/// OVC048/// 16/13 Q1012
Temperature: 16.0°C ( 61°F)
Dewpoint: 13.0°C ( 55°F) [RH = 82%]
Pressure (altimeter):29.88 inches Hg (1012.0 mb)
Winds:from the WSW (250 degrees) at 29 MPH (25 knots; 12.9 m/s)
Visibility:6 or more sm (10+ km)
Ceiling:2400 feet AGL
Clouds: broken clouds at 2400 feet AGL, overcast cloud deck at 4800 feet AGL
Text:EKRN 150950Z AUTO 25024KT 9999 BKN046/// BKN110/// 16/12 Q1012
Temperature: 16.0°C ( 61°F)
Dewpoint: 12.0°C ( 54°F) [RH = 77%]
Pressure (altimeter):29.88 inches Hg (1012.0 mb)
Winds:from the WSW (250 degrees) at 28 MPH (24 knots; 12.3 m/s)
Visibility:6 or more sm (10+ km)
Ceiling:4600 feet AGL
Clouds: broken clouds at 4600 feet AGL, broken clouds at 11000 feet AGL
Text:EKRN 150920Z AUTO 25021KT 9999 BKN026/// BKN044/// 16/12 Q1012
Temperature: 16.0°C ( 61°F)
Dewpoint: 12.0°C ( 54°F) [RH = 77%]
Pressure (altimeter):29.88 inches Hg (1012.0 mb)
Winds:from the WSW (250 degrees) at 24 MPH (21 knots; 10.8 m/s)
Visibility:6 or more sm (10+ km)
Ceiling:2600 feet AGL
Clouds: broken clouds at 2600 feet AGL, broken clouds at 4400 feet AGL
Text:EKRN 150850Z AUTO 25023KT 9999 SCT032/// 16/12 Q1013
Temperature: 16.0°C ( 61°F)
Dewpoint: 12.0°C ( 54°F) [RH = 77%]
Pressure (altimeter):29.91 inches Hg (1013.0 mb)
Winds:from the WSW (250 degrees) at 26 MPH (23 knots; 11.8 m/s)
Visibility:6 or more sm (10+ km)
Ceiling:at least 12,000 feet AGL
Clouds: scattered clouds at 3200 feet AGL
Text:EKRN 150820Z AUTO 25022KT 9999 NCD 16/12 Q1013
Temperature: 16.0°C ( 61°F)
Dewpoint: 12.0°C ( 54°F) [RH = 77%]
Pressure (altimeter):29.91 inches Hg (1013.0 mb)
Winds:from the WSW (250 degrees) at 25 MPH (22 knots; 11.3 m/s)
Visibility:6 or more sm (10+ km)
Ceiling:at least 12,000 feet AGL
Clouds:sky clear below 12,000 feet AGL
Text:EKRN 150750Z AUTO 24024KT 9999 FEW100/// 16/10 Q1014
Temperature: 16.0°C ( 61°F)
Dewpoint: 10.0°C ( 50°F) [RH = 68%]
Pressure (altimeter):29.94 inches Hg (1014.0 mb)
Winds:from the WSW (240 degrees) at 28 MPH (24 knots; 12.3 m/s)
Visibility:6 or more sm (10+ km)
Ceiling:at least 12,000 feet AGL
Clouds: few clouds at 10000 feet AGL
Text:EKRN 150720Z AUTO 25024G34KT 9999 FEW240/// 16/10 Q1014
Temperature: 16.0°C ( 61°F)
Dewpoint: 10.0°C ( 50°F) [RH = 68%]
Pressure (altimeter):29.94 inches Hg (1014.0 mb)
Winds:from the WSW (250 degrees) at 28 MPH (24 knots; 12.3 m/s) gusting to 39 MPH (34 knots; 17.5 m/s)
Visibility:6 or more sm (10+ km)
Ceiling:at least 12,000 feet AGL
Clouds: few clouds at 24000 feet AGL
Text:EKRN 150650Z AUTO 24023KT 9999 NCD 16/10 Q1015
Temperature: 16.0°C ( 61°F)
Dewpoint: 10.0°C ( 50°F) [RH = 68%]
Pressure (altimeter):29.97 inches Hg (1015.0 mb)
Winds:from the WSW (240 degrees) at 26 MPH (23 knots; 11.8 m/s)
Visibility:6 or more sm (10+ km)
Ceiling:at least 12,000 feet AGL
Clouds:sky clear below 12,000 feet AGL
Text:EKRN 150620Z AUTO 24023KT 9999 NCD 16/10 Q1014
Temperature: 16.0°C ( 61°F)
Dewpoint: 10.0°C ( 50°F) [RH = 68%]
Pressure (altimeter):29.94 inches Hg (1014.0 mb)
Winds:from the WSW (240 degrees) at 26 MPH (23 knots; 11.8 m/s)
Visibility:6 or more sm (10+ km)
Ceiling:at least 12,000 feet AGL
Clouds:sky clear below 12,000 feet AGL
Text:EKRN 150550Z AUTO 24023KT 9999 NCD 15/09 Q1015
Temperature: 15.0°C ( 59°F)
Dewpoint: 9.0°C ( 48°F) [RH = 67%]
Pressure (altimeter):29.97 inches Hg (1015.0 mb)
Winds:from the WSW (240 degrees) at 26 MPH (23 knots; 11.8 m/s)
Visibility:6 or more sm (10+ km)
Ceiling:at least 12,000 feet AGL
Clouds:sky clear below 12,000 feet AGL
Text:EKRN 150520Z AUTO 24025KT 9999 NCD 15/10 Q1016
Temperature: 15.0°C ( 59°F)
Dewpoint: 10.0°C ( 50°F) [RH = 72%]
Pressure (altimeter):30.00 inches Hg (1016.0 mb)
Winds:from the WSW (240 degrees) at 29 MPH (25 knots; 12.9 m/s)
Visibility:6 or more sm (10+ km)
Ceiling:at least 12,000 feet AGL
Clouds:sky clear below 12,000 feet AGL
Text:EKRN 150450Z AUTO 24018G30KT 9999 FEW200/// 15/10 Q1016
Temperature: 15.0°C ( 59°F)
Dewpoint: 10.0°C ( 50°F) [RH = 72%]
Pressure (altimeter):30.00 inches Hg (1016.0 mb)
Winds:from the WSW (240 degrees) at 21 MPH (18 knots; 9.3 m/s) gusting to 34 MPH (30 knots; 15.4 m/s)
Visibility:6 or more sm (10+ km)
Ceiling:at least 12,000 feet AGL
Clouds: few clouds at 20000 feet AGL
Text:EKRN 150420Z AUTO 24019KT 9999 FEW071/// SCT190/// BKN210/// 15/09 Q1017
Temperature: 15.0°C ( 59°F)
Dewpoint: 9.0°C ( 48°F) [RH = 67%]
Pressure (altimeter):30.03 inches Hg (1017.0 mb)
Winds:from the WSW (240 degrees) at 22 MPH (19 knots; 9.8 m/s)
Visibility:6 or more sm (10+ km)
Ceiling:21000 feet AGL
Clouds: few clouds at 7100 feet AGL, scattered clouds at 19000 feet AGL, broken clouds at 21000 feet AGL
Text:EKRN 150350Z AUTO 23017KT 9999 BKN150/// 15/10 Q1017
Temperature: 15.0°C ( 59°F)
Dewpoint: 10.0°C ( 50°F) [RH = 72%]
Pressure (altimeter):30.03 inches Hg (1017.0 mb)
Winds:from the SW (230 degrees) at 20 MPH (17 knots; 8.7 m/s)
Visibility:6 or more sm (10+ km)
Ceiling:15000 feet AGL
Clouds: broken clouds at 15000 feet AGL
Text:EKRN 150320Z AUTO 24020KT 9999 BKN160/// 15/10 Q1018
Temperature: 15.0°C ( 59°F)
Dewpoint: 10.0°C ( 50°F) [RH = 72%]
Pressure (altimeter):30.06 inches Hg (1018.0 mb)
Winds:from the WSW (240 degrees) at 23 MPH (20 knots; 10.3 m/s)
Visibility:6 or more sm (10+ km)
Ceiling:16000 feet AGL
Clouds: broken clouds at 16000 feet AGL
Text:EKRN 150250Z AUTO 23015KT 9999 OVC180/// 15/10 Q1019
Temperature: 15.0°C ( 59°F)
Dewpoint: 10.0°C ( 50°F) [RH = 72%]
Pressure (altimeter):30.09 inches Hg (1019.0 mb)
Winds:from the SW (230 degrees) at 17 MPH (15 knots; 7.7 m/s)
Visibility:6 or more sm (10+ km)
Ceiling:18000 feet AGL
Clouds: overcast cloud deck at 18000 feet AGL
Text:EKRN 150220Z AUTO 23016KT 9999 BKN170/// 15/10 Q1019
Temperature: 15.0°C ( 59°F)
Dewpoint: 10.0°C ( 50°F) [RH = 72%]
Pressure (altimeter):30.09 inches Hg (1019.0 mb)
Winds:from the SW (230 degrees) at 18 MPH (16 knots; 8.2 m/s)
Visibility:6 or more sm (10+ km)
Ceiling:17000 feet AGL
Clouds: broken clouds at 17000 feet AGL
Text:EKRN 150150Z AUTO 24017KT 9999 FEW069/// BKN180/// 15/10 Q1020
Temperature: 15.0°C ( 59°F)
Dewpoint: 10.0°C ( 50°F) [RH = 72%]
Pressure (altimeter):30.12 inches Hg (1020.0 mb)
Winds:from the WSW (240 degrees) at 20 MPH (17 knots; 8.7 m/s)
Visibility:6 or more sm (10+ km)
Ceiling:18000 feet AGL
Clouds: few clouds at 6900 feet AGL, broken clouds at 18000 feet AGL
Text:EKRN 150120Z AUTO 24017KT 9999 NCD 15/10 Q1021
Temperature: 15.0°C ( 59°F)
Dewpoint: 10.0°C ( 50°F) [RH = 72%]
Pressure (altimeter):30.15 inches Hg (1021.0 mb)
Winds:from the WSW (240 degrees) at 20 MPH (17 knots; 8.7 m/s)
Visibility:6 or more sm (10+ km)
Ceiling:at least 12,000 feet AGL
Clouds:sky clear below 12,000 feet AGL
Text:EKRN 150050Z AUTO 24017KT 9999 NCD 15/10 Q1021
Temperature: 15.0°C ( 59°F)
Dewpoint: 10.0°C ( 50°F) [RH = 72%]
Pressure (altimeter):30.15 inches Hg (1021.0 mb)
Winds:from the WSW (240 degrees) at 20 MPH (17 knots; 8.7 m/s)
Visibility:6 or more sm (10+ km)
Ceiling:at least 12,000 feet AGL
Clouds:sky clear below 12,000 feet AGL
Text:EKRN 150020Z AUTO 24018KT 9999 NCD 15/09 Q1022
Temperature: 15.0°C ( 59°F)
Dewpoint: 9.0°C ( 48°F) [RH = 67%]
Pressure (altimeter):30.18 inches Hg (1022.0 mb)
Winds:from the WSW (240 degrees) at 21 MPH (18 knots; 9.3 m/s)
Visibility:6 or more sm (10+ km)
Ceiling:at least 12,000 feet AGL
Clouds:sky clear below 12,000 feet AGL

TAF for:EKRN (Ronne/Bornholm Arpt, --, DN) issued at 1121 UTC 16 Sep 2019
Text:TAF EKRN 161121Z 1612/1621 28018KT 9999 SCT030
Forecast period:1200 to 2100 UTC 16 September 2019
Forecast type:FROM: standard forecast or significant change
Winds:from the W (280 degrees) at 21 MPH (18 knots; 9.3 m/s)
Visibility:6 or more sm (10+ km)
Ceiling:at least 12,000 feet AGL
Clouds: scattered clouds at 3000 feet AGL
Text:TEMPO 1612/1621 29020G32KT FEW025TCU
Forecast period:1200 to 2100 UTC 16 September 2019
Forecast type:TEMPORARY: The following changes expected for less than half the time period
Winds:from the WNW (290 degrees) at 23 MPH (20 knots; 10.3 m/s) gusting to 37 MPH (32 knots; 16.5 m/s)
Ceiling:at least 12,000 feet AGL
Clouds: few clouds at 2500 feet AGL